Time;durP1;ratioP1;P1;durP2;ratioP2;P2;SDS_P1;SDS_P2;PMS_P1;PMS_P2;Temp;Humidity;BMP_temperature;BMP_pressure;BME280_temperature;BME280_humidity;BME280_pressure;Samples;Min_cycle;Max_cycle;Signal;HPM_P1;HPM_P2
2023/05/16 00:01:44;;;;;;;7.38;4.93;;;;;;;11.77;100.00;100545.41;10371630;28;20141;-67
2023/05/16 00:06:44;;;;;;;7.57;5.00;;;;;;;11.73;100.00;100543.28;10370674;28;20046;-67
2023/05/16 00:11:47;;;;;;;6.85;4.45;;;;;;;11.26;100.00;100482.84;10371407;28;20033;-67
2023/05/16 00:16:47;;;;;;;8.32;4.45;;;;;;;11.62;100.00;100555.09;10371349;28;20103;-67
2023/05/16 00:21:48;;;;;;;11.77;4.75;;;;;;;11.55;100.00;100548.81;10370961;28;20049;-67
2023/05/16 00:26:49;;;;;;;35.13;10.20;;;;;;;11.51;100.00;100539.47;10371153;28;20049;-67
2023/05/16 00:31:50;;;;;;;32.42;9.55;;;;;;;11.42;100.00;100547.47;10375612;28;20038;-68
2023/05/16 00:36:51;;;;;;;20.90;6.25;;;;;;;11.31;100.00;100544.34;10378102;28;20049;-67
2023/05/16 00:41:52;;;;;;;10.38;5.80;;;;;;;11.20;100.00;100558.81;10375958;28;20041;-67
2023/05/16 00:46:53;;;;;;;19.13;6.07;;;;;;;11.18;100.00;100542.19;10377141;28;20045;-67
2023/05/16 00:51:55;;;;;;;12.55;6.10;;;;;;;10.96;100.00;100525.91;10377091;28;20501;-68
2023/05/16 00:56:56;;;;;;;10.93;5.90;;;;;;;11.13;100.00;100541.88;10377062;28;20054;-67
2023/05/16 01:01:57;;;;;;;6.57;4.63;;;;;;;11.01;100.00;100545.84;10375431;28;20124;-67
2023/05/16 01:06:59;;;;;;;15.45;4.68;;;;;;;10.27;100.00;100439.50;10376895;28;20577;-67
2023/05/16 01:12:28;;;;;;;11.40;5.25;;;;;;;10.88;100.00;100547.16;10376315;28;20045;-67
2023/05/16 01:17:41;;;;;;;9.77;5.25;;;;;;;10.88;100.00;100539.19;10376474;28;20038;-68
2023/05/16 01:22:46;;;;;;;18.00;6.93;;;;;;;10.82;100.00;100555.78;10376297;28;20132;-68
2023/05/16 01:27:48;;;;;;;19.15;6.45;;;;;;;10.50;100.00;100546.78;10390487;28;20228;-68
2023/05/16 01:32:48;;;;;;;12.32;6.25;;;;;;;10.06;100.00;100482.41;10400737;28;20453;-67
2023/05/16 01:38:16;;;;;;;21.10;6.30;;;;;;;10.51;100.00;100548.44;10375171;28;20088;-67
2023/05/16 01:43:39;;;;;;;18.35;6.32;;;;;;;9.57;100.00;100406.13;10408573;28;20045;-67
2023/05/16 01:48:49;;;;;;;9.13;5.25;;;;;;;10.57;100.00;100573.53;10416278;28;20513;-67
2023/05/16 01:53:54;;;;;;;7.88;5.80;;;;;;;10.57;100.00;100580.66;10416435;28;20069;-67
2023/05/16 01:58:57;;;;;;;10.70;5.15;;;;;;;10.08;100.00;100493.69;10406570;28;20061;-67
2023/05/16 02:03:58;;;;;;;25.27;5.28;;;;;;;10.30;100.00;100525.97;10374876;28;20521;-67
2023/05/16 02:08:59;;;;;;;9.05;4.60;;;;;;;10.65;100.00;100578.00;10374601;28;20073;-67
2023/05/16 02:14:02;;;;;;;11.73;4.22;;;;;;;10.88;100.00;100584.38;10373746;28;20609;-68
2023/05/16 02:19:03;;;;;;;7.93;4.13;;;;;;;11.20;100.00;100582.75;10374245;28;20096;-68
2023/05/16 02:24:05;;;;;;;4.97;3.63;;;;;;;11.54;100.00;100576.38;10373409;28;20506;-68
2023/05/16 02:29:05;;;;;;;9.43;4.00;;;;;;;11.99;100.00;100545.69;10373430;28;20417;-68
2023/05/16 02:34:06;;;;;;;5.65;3.65;;;;;;;12.91;100.00;100591.19;10400323;28;20038;-67
2023/05/16 02:39:09;;;;;;;4.63;3.47;;;;;;;12.30;100.00;100509.28;10400147;28;20045;-68
2023/05/16 02:44:10;;;;;;;29.88;4.35;;;;;;;12.54;100.00;100566.09;10387956;28;20041;-67
2023/05/16 02:49:11;;;;;;;5.05;3.40;;;;;;;12.51;100.00;100579.78;10367014;28;20042;-67
2023/05/16 02:54:12;;;;;;;5.97;3.30;;;;;;;12.58;100.00;100596.72;10368353;28;20052;-67
2023/05/16 02:59:13;;;;;;;4.78;3.28;;;;;;;12.61;100.00;100603.53;10372636;28;20111;-68
2023/05/16 03:04:13;;;;;;;9.30;3.50;;;;;;;12.60;100.00;100605.38;10371221;28;20451;-68
2023/05/16 03:09:14;;;;;;;7.68;3.63;;;;;;;12.76;100.00;100589.28;10366108;28;20038;-68
2023/05/16 03:14:15;;;;;;;4.57;3.83;;;;;;;13.12;100.00;100583.34;10366133;28;20048;-68
2023/05/16 03:19:16;;;;;;;5.97;3.50;;;;;;;13.30;99.97;100555.56;10365938;28;20501;-69
2023/05/16 03:24:17;;;;;;;6.57;3.45;;;;;;;13.38;99.59;100558.19;10372367;28;20517;-68
2023/05/16 03:29:18;;;;;;;6.22;3.58;;;;;;;13.62;98.71;100589.97;10371630;28;20128;-68
2023/05/16 03:34:18;;;;;;;5.50;3.45;;;;;;;13.64;98.28;100603.13;10372028;28;20091;-68
2023/05/16 03:39:20;;;;;;;5.20;3.67;;;;;;;13.65;98.11;100600.28;10372565;28;20448;-68
2023/05/16 03:44:20;;;;;;;5.35;3.90;;;;;;;13.66;98.36;100609.09;10372451;28;20037;-68
2023/05/16 03:49:28;;;;;;;7.05;4.28;;;;;;;13.65;99.32;100605.63;10367076;28;20050;-68
2023/05/16 03:54:29;;;;;;;4.68;3.72;;;;;;;13.78;99.03;100614.84;10382694;28;20061;-69
2023/05/16 03:59:30;;;;;;;4.95;3.78;;;;;;;13.85;99.15;100592.56;10370800;28;20474;-69
2023/05/16 04:04:31;;;;;;;5.10;3.70;;;;;;;14.12;98.26;100612.47;10372639;28;20128;-69
2023/05/16 04:09:32;;;;;;;6.13;3.88;;;;;;;14.05;97.02;100527.91;10379306;28;20104;-67
2023/05/16 04:14:34;;;;;;;5.03;3.50;;;;;;;15.05;95.03;100610.09;10379070;28;20042;-67
2023/05/16 04:19:35;;;;;;;5.32;2.90;;;;;;;15.71;93.65;100617.91;10377774;28;20389;-67
2023/05/16 04:24:36;;;;;;;4.15;3.05;;;;;;;16.05;91.95;100608.22;10378049;28;20046;-68
2023/05/16 04:29:36;;;;;;;4.43;2.95;;;;;;;16.50;90.71;100611.34;10378454;28;20092;-70
2023/05/16 04:34:37;;;;;;;6.30;3.00;;;;;;;17.26;87.96;100614.66;10384481;28;20502;-70
2023/05/16 04:39:38;;;;;;;6.30;2.70;;;;;;;17.59;85.23;100600.41;10375509;28;20133;-73
2023/05/16 04:44:39;;;;;;;4.70;2.60;;;;;;;16.44;83.35;100383.19;10413371;28;20045;-71
2023/05/16 04:49:40;;;;;;;4.20;2.33;;;;;;;17.81;81.33;100525.78;10416624;28;20402;-71
2023/05/16 04:54:41;;;;;;;25.30;3.70;;;;;;;19.19;77.83;100587.19;10417551;28;20041;-69
2023/05/16 04:59:43;;;;;;;6.25;2.67;;;;;;;19.68;74.72;100566.69;10418800;28;20144;-69
2023/05/16 05:04:43;;;;;;;6.18;2.60;;;;;;;19.52;74.03;100529.50;10418189;28;20490;-68
2023/05/16 05:09:45;;;;;;;6.75;2.70;;;;;;;19.82;74.01;100581.69;10410328;28;20038;-71
2023/05/16 05:14:46;;;;;;;3.95;2.72;;;;;;;19.74;75.60;100597.31;10380109;28;20502;-68
2023/05/16 05:19:47;;;;;;;4.25;2.85;;;;;;;19.99;76.08;100599.97;10374658;28;20045;-70
2023/05/16 05:24:48;;;;;;;5.00;3.03;;;;;;;20.08;73.71;100592.44;10375672;28;20037;-72
2023/05/16 05:29:48;;;;;;;6.88;2.20;;;;;;;20.13;72.64;100527.81;10376201;28;20045;-71
2023/05/16 05:34:49;;;;;;;7.03;2.50;;;;;;;19.65;71.85;100380.34;10375308;28;20044;-71
2023/05/16 05:39:50;;;;;;;5.03;2.22;;;;;;;20.95;72.56;100588.41;10390227;28;20052;-71
2023/05/16 05:44:51;;;;;;;3.83;2.33;;;;;;;21.22;68.46;100560.16;10375224;28;20513;-72
2023/05/16 05:49:52;;;;;;;7.78;2.22;;;;;;;21.22;66.52;100555.56;10375568;28;20080;-72
2023/05/16 05:54:53;;;;;;;3.75;2.10;;;;;;;21.46;65.66;100583.47;10374772;28;20470;-71
2023/05/16 05:59:54;;;;;;;3.53;2.00;;;;;;;21.45;65.15;100570.19;10375205;28;20068;-72
2023/05/16 06:04:55;;;;;;;3.38;2.30;;;;;;;21.25;63.72;100576.72;10374041;28;20049;-71
2023/05/16 06:09:56;;;;;;;3.50;2.00;;;;;;;21.05;63.34;100509.50;10385396;28;20555;-72
2023/05/16 06:14:56;;;;;;;3.38;2.53;;;;;;;21.71;63.12;100577.81;10374739;28;20068;-72
2023/05/16 06:19:57;;;;;;;4.75;2.15;;;;;;;21.74;62.98;100558.44;10374349;28;20045;-74
2023/05/16 06:28:36;;;;;;;8.65;2.53;;;;;;;21.50;62.73;100462.19;10531827;27;20760;-67
2023/05/16 06:33:37;;;;;;;5.70;2.60;;;;;;;22.20;62.88;100577.56;10529542;28;20044;-67
2023/05/16 06:38:38;;;;;;;3.78;2.60;;;;;;;22.20;62.19;100575.69;10530353;28;20050;-67
2023/05/16 06:43:40;;;;;;;4.43;2.50;;;;;;;22.05;62.47;100548.28;10531232;28;20048;-68
2023/05/16 06:48:41;;;;;;;3.72;2.50;;;;;;;22.31;62.14;100572.09;10531571;28;20043;-66
2023/05/16 06:53:42;;;;;;;2.85;2.47;;;;;;;21.84;61.75;100498.34;10531229;28;20044;-67
2023/05/16 06:58:42;;;;;;;13.10;2.58;;;;;;;22.29;61.05;100558.00;10530544;28;20557;-68
2023/05/16 07:03:44;;;;;;;13.15;3.03;;;;;;;22.64;59.68;100559.75;10530253;28;20389;-66
2023/05/16 07:08:45;;;;;;;5.93;2.70;;;;;;;22.74;59.35;100543.69;10528922;28;20040;-66
2023/05/16 07:13:45;;;;;;;4.97;2.50;;;;;;;22.78;59.35;100561.09;10529374;28;20044;-65
2023/05/16 07:18:46;;;;;;;5.03;2.60;;;;;;;22.84;59.93;100550.34;10529853;28;20036;-64
2023/05/16 07:23:47;;;;;;;5.35;2.60;;;;;;;23.05;59.07;100546.13;10474904;28;20094;-64
2023/05/16 07:28:51;;;;;;;3.55;2.20;;;;;;;23.39;55.57;100534.22;10446110;28;20061;-66
2023/05/16 07:33:52;;;;;;;3.78;2.45;;;;;;;23.66;56.52;100538.94;10446117;28;20524;-67
2023/05/16 07:38:53;;;;;;;4.13;2.10;;;;;;;23.30;54.60;100475.25;10424125;28;20088;-67
2023/05/16 07:43:54;;;;;;;4.32;1.85;;;;;;;23.49;52.94;100476.63;10418827;28;20041;-67
2023/05/16 07:48:55;;;;;;;4.75;1.70;;;;;;;24.03;51.20;100524.81;10416776;28;20041;-67
2023/05/16 07:53:56;;;;;;;2.90;1.75;;;;;;;23.99;49.73;100502.78;10417411;28;20175;-68
2023/05/16 07:58:57;;;;;;;4.65;1.92;;;;;;;23.76;49.62;100427.09;10418564;28;20088;-67
2023/05/16 08:03:57;;;;;;;4.10;1.65;;;;;;;24.42;48.10;100514.69;10414397;28;20439;-68
2023/05/16 08:08:58;;;;;;;4.93;1.88;;;;;;;24.54;47.11;100503.69;10418481;28;20076;-68
2023/05/16 08:13:59;;;;;;;2.42;1.75;;;;;;;24.76;46.46;100496.28;10417761;28;20486;-67
2023/05/16 08:19:00;;;;;;;5.93;2.00;;;;;;;24.86;45.21;100476.53;10417735;28;20037;-67
2023/05/16 08:24:01;;;;;;;5.65;1.90;;;;;;;25.19;45.54;100504.53;10418124;28;20613;-67
2023/05/16 08:29:02;;;;;;;6.38;1.65;;;;;;;24.77;45.42;100423.75;10417071;28;20057;-68
2023/05/16 08:34:05;;;;;;;7.40;1.67;;;;;;;25.40;43.38;100500.06;10414490;28;20096;-67
2023/05/16 08:39:06;;;;;;;7.85;2.00;;;;;;;25.03;42.11;100408.44;10418398;28;20044;-69
2023/05/16 08:44:09;;;;;;;2.22;1.60;;;;;;;25.60;41.74;100489.28;10434073;28;20527;-69
2023/05/16 08:49:10;;;;;;;4.88;1.52;;;;;;;25.09;40.67;100398.41;10415452;28;20037;-69
2023/05/16 08:54:13;;;;;;;4.80;1.85;;;;;;;25.68;41.93;100463.47;10416606;28;20418;-70
2023/05/16 08:59:14;;;;;;;2.95;1.73;;;;;;;25.51;40.08;100441.91;10415657;28;20433;-70
2023/05/16 09:04:15;;;;;;;3.28;1.90;;;;;;;24.43;41.27;100407.72;10416711;28;20072;-69
2023/05/16 09:09:16;;;;;;;3.97;1.60;;;;;;;23.69;42.02;100321.47;10416148;28;20069;-71
2023/05/16 09:14:16;;;;;;;2.47;1.60;;;;;;;25.06;40.02;100460.38;10415726;28;20060;-70
2023/05/16 09:19:17;;;;;;;2.40;1.50;;;;;;;24.99;38.53;100448.09;10414410;28;20037;-70
2023/05/16 09:24:25;;;;;;;4.57;1.73;;;;;;;25.32;38.59;100444.25;10414931;28;20124;-69
2023/05/16 09:29:26;;;;;;;2.75;1.50;;;;;;;25.51;39.39;100442.72;10415490;28;20038;-69
2023/05/16 09:34:27;;;;;;;4.65;1.70;;;;;;;25.34;39.24;100450.25;10414026;28;20076;-71
2023/05/16 09:39:28;;;;;;;2.55;1.50;;;;;;;24.92;39.23;100391.25;10413865;28;20677;-71
2023/05/16 09:44:30;;;;;;;2.70;1.60;;;;;;;25.11;40.12;100435.13;10413149;28;20079;-70
2023/05/16 09:49:31;;;;;;;3.17;1.77;;;;;;;25.71;39.70;100428.38;10413885;28;20118;-70
2023/05/16 09:54:33;;;;;;;5.40;1.73;;;;;;;25.78;39.20;100430.84;10413846;28;20187;-70
2023/05/16 09:59:38;;;;;;;3.00;1.70;;;;;;;25.53;38.16;100422.59;10414134;28;20099;-70
2023/05/16 10:04:40;;;;;;;5.65;2.40;;;;;;;25.81;38.58;100397.66;10413733;28;20049;-70
2023/05/16 10:09:42;;;;;;;5.60;1.90;;;;;;;26.17;38.60;100406.78;10414048;28;20048;-73
2023/05/16 10:14:45;;;;;;;3.80;1.70;;;;;;;26.45;37.78;100409.25;10430997;28;20037;-71
2023/05/16 10:19:46;;;;;;;;;;;;;;;26.34;40.59;100395.63;10416850;28;20045;-71
2023/05/16 10:25:07;;;;;;;15.95;2.72;;;;;;;25.44;40.52;100371.44;10442465;28;20425;-71
2023/05/16 10:30:09;;;;;;;5.78;2.20;;;;;;;25.32;40.55;100384.44;10453740;28;20049;-71
2023/05/16 10:35:10;;;;;;;11.02;1.67;;;;;;;25.43;40.30;100358.13;10453442;28;20041;-70
2023/05/16 10:40:12;;;;;;;3.53;2.20;;;;;;;25.51;39.68;100372.00;10453460;28;20041;-72
2023/05/16 10:45:19;;;;;;;5.63;1.95;;;;;;;24.50;39.26;100282.56;10454785;28;20079;-69
2023/05/16 10:50:38;;;;;;;4.93;1.90;;;;;;;24.26;42.08;100398.84;10453736;28;20071;-71
2023/05/16 10:55:39;;;;;;;4.40;1.65;;;;;;;22.79;43.70;100315.44;10454067;28;20040;-71
2023/05/16 11:00:40;;;;;;;9.48;2.60;;;;;;;22.75;45.52;100380.13;10453638;28;20063;-71
2023/05/16 11:05:42;;;;;;;7.82;2.10;;;;;;;22.36;46.05;100335.13;10453187;28;20041;-70
2023/05/16 11:10:43;;;;;;;3.75;1.70;;;;;;;22.83;44.46;100397.88;10453337;28;20041;-72
2023/05/16 11:15:44;;;;;;;3.88;1.58;;;;;;;23.08;44.10;100407.47;10461377;28;20068;-71
2023/05/16 11:20:45;;;;;;;3.38;1.52;;;;;;;23.21;42.95;100399.81;10460476;28;20045;-71
2023/05/16 11:25:53;;;;;;;2.80;1.40;;;;;;;23.59;42.81;100391.88;10460685;28;20487;-71
2023/05/16 11:30:58;;;;;;;6.78;2.60;;;;;;;24.17;42.01;100411.25;10460581;28;20047;-71
2023/05/16 11:36:04;;;;;;;3.85;2.70;;;;;;;24.09;40.91;100424.19;10459882;28;20569;-72
2023/05/16 11:41:06;;;;;;;4.93;1.48;;;;;;;23.54;43.52;100429.75;10460671;28;20047;-72
2023/05/16 11:46:10;;;;;;;5.60;1.65;;;;;;;22.98;45.96;100438.75;10455209;28;20496;-72
2023/05/16 11:51:13;;;;;;;3.88;1.63;;;;;;;22.71;46.41;100440.47;10430409;28;20068;-72
2023/05/16 11:56:14;;;;;;;6.17;1.70;;;;;;;22.80;46.23;100422.72;10429767;28;20049;-72
2023/05/16 12:01:15;;;;;;;2.90;1.30;;;;;;;23.06;45.19;100433.97;10439595;28;20501;-72
2023/05/16 12:06:16;;;;;;;5.13;1.60;;;;;;;23.65;44.29;100431.53;10418262;28;20041;-70
2023/05/16 12:11:17;;;;;;;7.22;2.20;;;;;;;23.80;44.76;100422.78;10427770;28;20413;-71
2023/05/16 12:16:18;;;;;;;7.50;1.88;;;;;;;23.88;45.32;100414.22;10430977;28;21237;-71
2023/05/16 12:21:19;;;;;;;4.75;1.75;;;;;;;23.78;45.69;100395.09;10417641;28;20048;-70
2023/05/16 12:26:32;;;;;;;11.43;1.80;;;;;;;23.76;46.03;100387.22;10417276;28;20139;-71
2023/05/16 12:31:39;;;;;;;2.43;1.30;;;;;;;23.92;45.32;100382.78;10417107;28;20060;-70
2023/05/16 12:36:41;;;;;;;6.55;1.50;;;;;;;23.83;44.80;100358.00;10416827;28;20046;-71
2023/05/16 12:41:42;;;;;;;2.55;1.38;;;;;;;23.31;43.97;100311.56;10419975;28;20045;-71
2023/05/16 12:46:45;;;;;;;2.70;1.50;;;;;;;23.79;44.09;100366.91;10457242;28;20493;-71
2023/05/16 12:51:53;;;;;;;3.70;1.60;;;;;;;23.84;43.99;100358.81;10457522;28;20048;-71
2023/05/16 12:56:54;;;;;;;6.03;1.45;;;;;;;23.52;45.09;100343.25;10457224;28;20489;-71
2023/05/16 13:01:55;;;;;;;3.33;1.52;;;;;;;23.40;44.47;100300.03;10456438;28;20040;-71
2023/05/16 13:06:56;;;;;;;3.83;1.33;;;;;;;24.17;43.69;100365.09;10457041;28;20408;-71
2023/05/16 13:11:57;;;;;;;3.33;1.58;;;;;;;24.13;42.82;100354.75;10456647;28;20036;-71
2023/05/16 13:16:57;;;;;;;3.60;1.67;;;;;;;23.79;42.46;100321.63;10456633;28;20048;-70
2023/05/16 13:21:58;;;;;;;2.95;1.35;;;;;;;23.89;42.45;100361.59;10456380;28;20037;-69
2023/05/16 13:26:59;;;;;;;3.20;1.50;;;;;;;23.75;43.54;100366.56;10456078;28;20401;-69
2023/05/16 13:32:00;;;;;;;3.10;1.80;;;;;;;23.51;43.81;100382.28;10455864;28;20412;-69
2023/05/16 13:37:01;;;;;;;5.85;2.38;;;;;;;23.29;44.73;100378.75;10455006;28;20051;-70
2023/05/16 13:42:02;;;;;;;7.82;3.13;;;;;;;22.99;44.91;100453.94;10455624;28;20045;-70
2023/05/16 13:47:03;;;;;;;5.60;2.35;;;;;;;21.25;48.40;100314.66;10454916;28;20041;-71
2023/05/16 13:52:05;;;;;;;3.38;1.90;;;;;;;21.25;51.18;100454.31;10454617;28;20751;-69
2023/05/16 13:57:06;;;;;;;8.55;2.30;;;;;;;19.96;53.60;100379.34;10454611;28;20076;-70
2023/05/16 14:02:07;;;;;;;3.45;1.70;;;;;;;19.83;55.07;100428.84;10453278;28;20047;-71
2023/05/16 14:07:07;;;;;;;10.48;2.38;;;;;;;19.49;56.82;100439.16;10455320;28;20374;-71
2023/05/16 14:12:08;;;;;;;3.85;1.70;;;;;;;19.07;57.84;100408.53;10454136;28;20123;-72
2023/05/16 14:17:09;;;;;;;17.35;10.30;;;;;;;18.78;58.54;100413.56;10453050;28;20500;-66
2023/05/16 14:22:10;;;;;;;7.07;4.32;;;;;;;18.72;58.08;100403.63;10417409;28;20048;-66
2023/05/16 14:27:13;;;;;;;12.75;5.47;;;;;;;18.12;58.06;100309.97;10432927;28;20067;-67
2023/05/16 14:32:14;;;;;;;9.43;4.72;;;;;;;18.24;57.74;100313.59;10439019;28;20051;-67
2023/05/16 14:37:15;;;;;;;25.17;13.57;;;;;;;18.78;57.14;100369.69;10454733;28;20476;-66
2023/05/16 14:42:17;;;;;;;19.55;10.10;;;;;;;18.91;57.79;100370.38;10454070;28;20041;-67
2023/05/16 14:47:17;;;;;;;8.35;4.55;;;;;;;18.28;57.37;100224.44;10456708;28;20035;-66
2023/05/16 14:52:18;;;;;;;9.70;3.15;;;;;;;19.36;57.03;100367.41;10461509;28;20072;-66
2023/05/16 14:57:19;;;;;;;2.97;1.67;;;;;;;19.77;55.47;100354.28;10459845;28;20140;-66
2023/05/16 15:02:20;;;;;;;19.80;3.30;;;;;;;19.49;55.81;100277.53;10430510;28;20041;-65
2023/05/16 15:07:21;;;;;;;5.28;2.15;;;;;;;19.99;56.24;100355.44;10421080;28;20037;-65
2023/05/16 15:12:22;;;;;;;16.65;2.50;;;;;;;20.03;56.34;100329.63;10420850;28;20084;-68
2023/05/16 15:17:22;;;;;;;4.55;1.85;;;;;;;19.75;57.43;100318.66;10418599;28;20068;-65
2023/05/16 15:22:23;;;;;;;5.72;2.20;;;;;;;19.66;58.34;100347.00;10420293;28;20045;-65
2023/05/16 15:27:24;;;;;;;2.72;1.63;;;;;;;19.37;59.92;100341.28;10418466;28;20584;-66
2023/05/16 15:32:25;;;;;;;3.53;1.75;;;;;;;19.10;61.08;100349.69;10419450;28;20493;-65
2023/05/16 15:37:26;;;;;;;3.75;1.77;;;;;;;18.82;62.48;100355.56;10418649;28;20092;-67
2023/05/16 15:42:27;;;;;;;11.40;2.40;;;;;;;18.07;64.86;100272.19;10418698;28;20037;-66
2023/05/16 15:47:28;;;;;;;13.38;2.63;;;;;;;18.34;65.87;100352.66;10419449;28;20033;-67
2023/05/16 15:52:28;;;;;;;4.28;2.03;;;;;;;18.28;66.24;100357.03;10418532;28;20041;-67
2023/05/16 15:57:30;;;;;;;6.10;1.98;;;;;;;18.18;67.02;100354.81;10417579;28;20104;-66
2023/05/16 16:02:30;;;;;;;11.23;2.25;;;;;;;18.04;67.71;100366.72;10417681;28;20076;-65
2023/05/16 16:07:31;;;;;;;9.90;2.60;;;;;;;17.76;69.23;100364.34;10424786;28;20558;-66
2023/05/16 16:12:32;;;;;;;7.32;2.65;;;;;;;17.55;70.47;100368.97;10435434;28;20041;-66
2023/05/16 16:17:33;;;;;;;9.38;3.72;;;;;;;17.36;71.59;100369.91;10432149;28;20040;-66
2023/05/16 16:22:34;;;;;;;8.95;2.72;;;;;;;17.16;72.94;100369.94;10458696;28;20037;-67
2023/05/16 16:27:35;;;;;;;41.53;5.43;;;;;;;16.86;73.60;100348.94;10458677;28;20436;-65
2023/05/16 16:32:35;;;;;;;48.78;5.32;;;;;;;16.67;74.89;100360.50;10448910;28;20047;-65
2023/05/16 16:37:36;;;;;;;10.00;2.97;;;;;;;16.44;76.12;100366.28;10427180;28;20049;-65
2023/05/16 16:42:39;;;;;;;8.95;2.72;;;;;;;16.24;76.68;100363.56;10417055;28;20037;-65
2023/05/16 16:47:40;;;;;;;10.30;2.88;;;;;;;16.02;78.05;100384.38;10436010;28;20049;-66
2023/05/16 16:52:41;;;;;;;12.35;3.88;;;;;;;15.89;78.64;100371.78;10433097;28;20087;-67
2023/05/16 16:57:42;;;;;;;10.82;3.70;;;;;;;15.73;79.12;100380.16;10436555;28;20041;-67
2023/05/16 17:02:43;;;;;;;11.70;4.38;;;;;;;15.64;79.50;100371.44;10431766;28;20397;-65
2023/05/16 17:07:44;;;;;;;7.18;3.70;;;;;;;15.18;80.11;100326.56;10439528;28;20053;-65
2023/05/16 17:12:48;;;;;;;11.85;3.70;;;;;;;15.29;80.94;100350.09;10439222;28;20065;-68
2023/05/16 17:17:48;;;;;;;7.00;3.78;;;;;;;15.06;81.25;100323.63;10435419;28;20055;-66
2023/05/16 17:22:49;;;;;;;6.47;3.45;;;;;;;15.06;81.98;100347.69;10437483;28;20045;-66
2023/05/16 17:27:50;;;;;;;15.73;3.88;;;;;;;15.17;82.66;100381.13;10433329;28;20049;-68
2023/05/16 17:32:51;;;;;;;16.27;3.88;;;;;;;14.83;82.70;100310.53;10439402;28;20119;-67
2023/05/16 17:37:52;;;;;;;10.88;3.67;;;;;;;15.23;83.15;100366.94;10434578;28;20067;-67
2023/05/16 17:42:52;;;;;;;11.00;3.92;;;;;;;15.01;83.94;100335.94;10431545;28;20091;-67
2023/05/16 17:47:53;;;;;;;12.00;4.20;;;;;;;15.12;84.06;100345.28;10437693;28;20131;-66
2023/05/16 17:52:54;;;;;;;6.10;3.58;;;;;;;15.45;84.37;100388.25;10435642;28;20072;-67
2023/05/16 17:57:55;;;;;;;7.28;3.58;;;;;;;15.48;84.49;100377.16;10440799;28;20087;-66
2023/05/16 18:02:55;;;;;;;19.33;5.05;;;;;;;14.98;84.75;100305.06;10433090;28;20124;-67
2023/05/16 18:07:56;;;;;;;8.90;4.40;;;;;;;15.41;85.03;100357.56;10431782;28;20517;-68
2023/05/16 18:12:58;;;;;;;11.98;5.10;;;;;;;15.12;84.97;100297.13;10438613;28;20477;-66
2023/05/16 18:17:59;;;;;;;10.75;5.00;;;;;;;15.47;84.98;100356.78;10436547;28;20033;-66
2023/05/16 18:23:00;;;;;;;9.82;5.40;;;;;;;15.52;85.19;100379.25;10438067;28;20029;-66
2023/05/16 18:28:02;;;;;;;10.02;5.78;;;;;;;15.12;84.87;100321.19;10435961;28;20062;-66
2023/05/16 18:33:03;;;;;;;11.63;6.38;;;;;;;15.60;83.72;100410.38;10432367;28;20436;-67
2023/05/16 18:38:05;;;;;;;10.90;5.72;;;;;;;15.09;84.13;100337.63;10439626;28;20029;-66
2023/05/16 18:43:06;;;;;;;9.95;4.30;;;;;;;15.64;84.99;100424.19;10438561;28;20030;-66
2023/05/16 18:48:07;;;;;;;11.77;3.55;;;;;;;15.72;85.93;100413.31;10437894;28;20049;-67
2023/05/16 18:53:08;;;;;;;5.68;3.30;;;;;;;15.63;86.78;100369.78;10429823;28;20049;-67
2023/05/16 18:58:08;;;;;;;5.25;2.85;;;;;;;15.70;86.94;100375.19;10424972;28;20412;-67
2023/05/16 19:03:09;;;;;;;3.85;2.42;;;;;;;15.47;86.63;100357.59;10436628;28;20033;-67
2023/05/16 19:08:10;;;;;;;11.02;3.15;;;;;;;15.86;86.50;100403.50;10412479;28;20041;-66
2023/05/16 19:13:11;;;;;;;4.85;3.10;;;;;;;15.77;86.51;100381.44;10411864;28;20064;-66
2023/05/16 19:18:12;;;;;;;4.68;2.40;;;;;;;15.95;85.95;100402.28;10412156;28;20041;-66
2023/05/16 19:23:13;;;;;;;7.68;2.85;;;;;;;16.05;84.83;100402.72;10418733;28;20484;-66
2023/05/16 19:28:15;;;;;;;6.35;2.40;;;;;;;16.03;83.72;100391.38;10416661;28;20062;-66
2023/05/16 19:33:16;;;;;;;5.07;2.70;;;;;;;16.15;83.21;100403.19;10425500;28;20090;-66
2023/05/16 19:38:18;;;;;;;4.55;2.33;;;;;;;15.59;83.16;100315.00;10419068;28;20102;-66
2023/05/16 19:43:19;;;;;;;3.17;2.63;;;;;;;15.66;83.99;100323.88;10419167;28;20378;-66
2023/05/16 19:48:20;;;;;;;7.85;2.63;;;;;;;16.13;84.27;100412.44;10418669;28;20045;-66
2023/05/16 19:53:21;;;;;;;4.65;2.70;;;;;;;15.98;84.34;100397.34;10418063;28;20044;-66
2023/05/16 19:58:22;;;;;;;5.45;2.78;;;;;;;15.58;84.34;100323.22;10417924;28;20124;-66
2023/05/16 20:03:22;;;;;;;6.07;2.60;;;;;;;15.95;84.63;100357.56;10417848;28;20163;-66
2023/05/16 20:08:23;;;;;;;5.68;2.97;;;;;;;16.02;85.45;100388.91;10417729;28;20033;-66
2023/05/16 20:13:24;;;;;;;7.60;4.90;;;;;;;15.94;86.63;100372.00;10418622;28;20045;-67
2023/05/16 20:18:25;;;;;;;6.82;4.50;;;;;;;15.83;88.11;100337.75;10418337;28;20045;-66
2023/05/16 20:23:26;;;;;;;6.25;3.83;;;;;;;15.39;89.50;100264.06;10417569;28;20041;-66
2023/05/16 20:28:27;;;;;;;7.63;3.85;;;;;;;15.57;91.17;100309.00;10416903;28;20053;-66
2023/05/16 20:33:27;;;;;;;6.53;3.28;;;;;;;15.27;91.64;100266.50;10416853;28;20048;-66
2023/05/16 20:38:28;;;;;;;5.72;3.50;;;;;;;15.60;92.34;100315.81;10416284;28;20461;-66
2023/05/16 20:43:29;;;;;;;5.22;3.20;;;;;;;15.68;92.37;100327.22;10417065;28;20497;-66
2023/05/16 20:48:30;;;;;;;6.88;3.60;;;;;;;15.60;92.61;100331.88;10417115;28;20086;-66
2023/05/16 20:53:30;;;;;;;6.15;3.38;;;;;;;15.52;93.67;100324.84;10416408;28;20451;-66
2023/05/16 20:58:31;;;;;;;6.43;3.90;;;;;;;15.35;93.91;100305.66;10415542;28;20045;-66
2023/05/16 21:03:32;;;;;;;6.35;3.30;;;;;;;15.37;94.49;100318.81;10415453;28;20048;-66
2023/05/16 21:08:33;;;;;;;4.88;3.38;;;;;;;15.28;94.97;100304.78;10415226;28;20041;-67
2023/05/16 21:13:34;;;;;;;5.82;3.88;;;;;;;15.24;95.40;100306.22;10415561;28;20037;-66
2023/05/16 21:18:34;;;;;;;6.85;3.67;;;;;;;14.62;95.89;100214.34;10415485;28;20037;-66
2023/05/16 21:23:35;;;;;;;5.82;3.60;;;;;;;15.07;96.94;100295.84;10415254;28;20038;-66
2023/05/16 21:28:36;;;;;;;6.53;3.65;;;;;;;14.91;97.20;100288.16;10415558;28;20179;-66
2023/05/16 21:33:37;;;;;;;6.25;3.50;;;;;;;14.40;97.21;100234.97;10415895;28;20128;-66
2023/05/16 21:38:37;;;;;;;4.75;3.70;;;;;;;14.52;97.06;100265.50;10414065;28;20049;-66
2023/05/16 21:43:38;;;;;;;5.18;3.83;;;;;;;14.56;97.45;100288.13;10412907;28;20445;-66
2023/05/16 21:48:39;;;;;;;5.97;3.10;;;;;;;13.93;97.56;100207.91;10414453;28;20145;-66
2023/05/16 21:53:40;;;;;;;5.55;3.60;;;;;;;13.83;97.73;100227.97;10414835;28;20042;-66
2023/05/16 21:58:41;;;;;;;6.80;4.20;;;;;;;13.82;98.10;100247.66;10413025;28;20133;-66
2023/05/16 22:03:42;;;;;;;5.00;3.60;;;;;;;14.06;98.39;100303.34;10413734;28;20048;-67
2023/05/16 22:08:42;;;;;;;9.07;3.72;;;;;;;13.91;98.11;100297.25;10411970;28;20056;-66
2023/05/16 22:13:43;;;;;;;7.30;3.30;;;;;;;13.44;98.13;100246.06;10414070;28;20037;-66
2023/05/16 22:18:44;;;;;;;5.43;2.90;;;;;;;13.81;97.73;100318.09;10412859;28;20132;-66
2023/05/16 22:23:44;;;;;;;3.78;2.30;;;;;;;13.24;97.21;100240.47;10413307;28;20041;-66
2023/05/16 22:28:45;;;;;;;3.28;2.05;;;;;;;13.18;96.23;100233.22;10413735;28;20060;-66
2023/05/16 22:33:46;;;;;;;3.95;2.10;;;;;;;12.98;95.75;100233.00;10412747;28;20540;-67
2023/05/16 22:38:47;;;;;;;3.97;2.10;;;;;;;13.21;95.09;100298.69;10430846;28;20041;-66
2023/05/16 22:43:47;;;;;;;5.88;2.10;;;;;;;13.24;94.83;100315.16;10412522;28;20050;-66
2023/05/16 22:48:48;;;;;;;8.23;2.22;;;;;;;12.65;94.64;100219.22;10413045;28;20041;-67
2023/05/16 22:53:49;;;;;;;4.07;2.15;;;;;;;13.03;94.61;100305.25;10433792;28;20554;-67
2023/05/16 22:58:50;;;;;;;4.50;1.85;;;;;;;12.65;93.94;100269.03;10454025;28;20526;-66
2023/05/16 23:03:51;;;;;;;3.08;1.67;;;;;;;12.75;94.11;100299.75;10452099;28;20048;-66